sensor_id;sensor_type;location;lat;lon;timestamp;P1;durP1;ratioP1;P2;durP2;ratioP2
32106;SDS011;18622;51.998;10.440;2022-08-19T02:18:45;25.20;;;13.97;;
32106;SDS011;18622;51.998;10.440;2022-08-19T02:21:16;21.33;;;14.65;;
32106;SDS011;18622;51.998;10.440;2022-08-19T02:23:45;21.80;;;13.90;;
32106;SDS011;18622;51.998;10.440;2022-08-19T02:26:13;20.90;;;14.20;;
32106;SDS011;18622;51.998;10.440;2022-08-19T02:28:42;28.25;;;15.03;;
32106;SDS011;18622;51.998;10.440;2022-08-19T02:31:15;24.93;;;16.07;;
32106;SDS011;18622;51.998;10.440;2022-08-19T02:33:41;23.63;;;16.83;;
32106;SDS011;18622;51.998;10.440;2022-08-19T02:36:09;25.03;;;15.23;;
32106;SDS011;18622;51.998;10.440;2022-08-19T02:38:38;26.30;;;14.63;;
32106;SDS011;18622;51.998;10.440;2022-08-19T02:41:08;24.32;;;15.10;;
32106;SDS011;18622;51.998;10.440;2022-08-19T02:43:40;27.47;;;16.50;;
32106;SDS011;18622;51.998;10.440;2022-08-19T02:46:18;23.27;;;15.70;;
32106;SDS011;18622;51.998;10.440;2022-08-19T02:48:51;25.50;;;15.70;;
32106;SDS011;18622;51.998;10.440;2022-08-19T02:51:31;30.23;;;16.35;;
32106;SDS011;18622;51.998;10.440;2022-08-19T02:53:51;25.93;;;17.63;;
32106;SDS011;18622;51.998;10.440;2022-08-19T02:56:20;26.93;;;18.20;;
32106;SDS011;18622;51.998;10.440;2022-08-19T02:58:50;30.87;;;18.27;;
32106;SDS011;18622;51.998;10.440;2022-08-19T03:34:01;31.67;;;21.03;;
32106;SDS011;18622;51.998;10.440;2022-08-19T03:36:29;27.77;;;19.73;;
32106;SDS011;18622;51.998;10.440;2022-08-19T03:38:58;37.23;;;19.43;;
32106;SDS011;18622;51.998;10.440;2022-08-19T03:41:28;35.13;;;20.92;;
32106;SDS011;18622;51.998;10.440;2022-08-19T03:43:57;28.23;;;18.85;;
32106;SDS011;18622;51.998;10.440;2022-08-19T03:46:31;31.90;;;20.27;;
32106;SDS011;18622;51.998;10.440;2022-08-19T03:48:57;30.33;;;18.70;;
32106;SDS011;18622;51.998;10.440;2022-08-19T03:53:57;28.25;;;18.62;;
32106;SDS011;18622;51.998;10.440;2022-08-19T03:58:54;28.35;;;18.95;;
32106;SDS011;18622;51.998;10.440;2022-08-19T04:01:24;23.55;;;17.98;;
32106;SDS011;18622;51.998;10.440;2022-08-19T04:03:57;26.07;;;18.23;;
32106;SDS011;18622;51.998;10.440;2022-08-19T04:06:27;26.20;;;17.93;;
32106;SDS011;18622;51.998;10.440;2022-08-19T04:08:57;29.87;;;17.55;;
32106;SDS011;18622;51.998;10.440;2022-08-19T04:11:41;26.73;;;16.70;;
32106;SDS011;18622;51.998;10.440;2022-08-19T04:14:08;23.30;;;17.10;;
32106;SDS011;18622;51.998;10.440;2022-08-19T04:16:37;25.90;;;18.57;;
32106;SDS011;18622;51.998;10.440;2022-08-19T04:19:08;28.57;;;18.47;;
32106;SDS011;18622;51.998;10.440;2022-08-19T04:21:46;28.13;;;17.53;;
32106;SDS011;18622;51.998;10.440;2022-08-19T04:27:39;31.17;;;18.43;;
32106;SDS011;18622;51.998;10.440;2022-08-19T04:30:08;26.40;;;18.23;;
32106;SDS011;18622;51.998;10.440;2022-08-19T04:32:36;25.17;;;17.82;;
32106;SDS011;18622;51.998;10.440;2022-08-19T04:35:04;23.63;;;16.47;;
32106;SDS011;18622;51.998;10.440;2022-08-19T04:37:32;27.20;;;17.13;;
32106;SDS011;18622;51.998;10.440;2022-08-19T04:40:00;27.00;;;17.60;;
32106;SDS011;18622;51.998;10.440;2022-08-19T04:42:46;25.23;;;18.57;;
32106;SDS011;18622;51.998;10.440;2022-08-19T04:45:14;28.53;;;19.00;;
32106;SDS011;18622;51.998;10.440;2022-08-19T04:47:42;28.23;;;18.98;;
32106;SDS011;18622;51.998;10.440;2022-08-19T04:50:10;29.95;;;18.35;;
32106;SDS011;18622;51.998;10.440;2022-08-19T04:52:38;34.63;;;19.97;;
32106;SDS011;18622;51.998;10.440;2022-08-19T04:55:10;27.82;;;19.80;;
32106;SDS011;18622;51.998;10.440;2022-08-19T04:57:38;37.98;;;19.87;;
32106;SDS011;18622;51.998;10.440;2022-08-19T05:00:07;24.40;;;18.13;;
32106;SDS011;18622;51.998;10.440;2022-08-19T05:02:36;37.65;;;18.45;;
32106;SDS011;18622;51.998;10.440;2022-08-19T05:05:04;32.48;;;20.20;;
32106;SDS011;18622;51.998;10.440;2022-08-19T05:07:32;28.73;;;20.47;;
32106;SDS011;18622;51.998;10.440;2022-08-19T05:10:00;22.80;;;18.60;;
32106;SDS011;18622;51.998;10.440;2022-08-19T05:12:28;31.57;;;20.17;;
32106;SDS011;18622;51.998;10.440;2022-08-19T05:14:57;26.07;;;19.93;;
32106;SDS011;18622;51.998;10.440;2022-08-19T09:03:44;10.57;;;6.40;;
32106;SDS011;18622;51.998;10.440;2022-08-19T09:06:19;7.70;;;6.30;;
32106;SDS011;18622;51.998;10.440;2022-08-19T09:09:03;7.57;;;6.80;;
32106;SDS011;18622;51.998;10.440;2022-08-19T09:14:22;9.83;;;6.93;;
32106;SDS011;18622;51.998;10.440;2022-08-19T09:16:52;10.47;;;6.73;;
32106;SDS011;18622;51.998;10.440;2022-08-19T09:19:20;8.37;;;6.10;;
32106;SDS011;18622;51.998;10.440;2022-08-19T09:21:48;8.37;;;6.67;;
32106;SDS011;18622;51.998;10.440;2022-08-19T09:24:16;9.60;;;6.47;;
32106;SDS011;18622;51.998;10.440;2022-08-19T09:26:43;12.07;;;5.80;;
32106;SDS011;18622;51.998;10.440;2022-08-19T09:29:12;9.60;;;5.65;;
32106;SDS011;18622;51.998;10.440;2022-08-19T09:31:40;10.83;;;6.47;;
32106;SDS011;18622;51.998;10.440;2022-08-19T09:34:07;8.10;;;5.33;;
32106;SDS011;18622;51.998;10.440;2022-08-19T09:36:35;6.47;;;5.40;;
32106;SDS011;18622;51.998;10.440;2022-08-19T09:39:05;6.97;;;5.20;;
32106;SDS011;18622;51.998;10.440;2022-08-19T09:41:33;10.38;;;5.83;;
32106;SDS011;18622;51.998;10.440;2022-08-19T09:44:01;8.53;;;5.70;;
32106;SDS011;18622;51.998;10.440;2022-08-19T09:46:29;5.13;;;4.40;;
32106;SDS011;18622;51.998;10.440;2022-08-19T09:48:58;6.70;;;4.60;;
32106;SDS011;18622;51.998;10.440;2022-08-19T09:51:26;8.75;;;4.75;;
32106;SDS011;18622;51.998;10.440;2022-08-19T09:53:58;8.08;;;5.55;;
32106;SDS011;18622;51.998;10.440;2022-08-19T09:56:28;9.30;;;5.67;;
32106;SDS011;18622;51.998;10.440;2022-08-19T09:58:59;6.47;;;5.58;;
32106;SDS011;18622;51.998;10.440;2022-08-19T10:01:30;7.40;;;5.22;;
32106;SDS011;18622;51.998;10.440;2022-08-19T10:03:59;7.17;;;5.50;;
32106;SDS011;18622;51.998;10.440;2022-08-19T10:06:29;7.23;;;6.23;;
32106;SDS011;18622;51.998;10.440;2022-08-19T10:08:59;8.13;;;5.60;;
32106;SDS011;18622;51.998;10.440;2022-08-19T10:11:28;9.03;;;5.35;;
32106;SDS011;18622;51.998;10.440;2022-08-19T10:13:56;6.57;;;4.80;;
32106;SDS011;18622;51.998;10.440;2022-08-19T10:16:24;8.47;;;5.73;;
32106;SDS011;18622;51.998;10.440;2022-08-19T10:18:52;7.17;;;5.47;;
32106;SDS011;18622;51.998;10.440;2022-08-19T10:21:22;8.45;;;6.08;;
32106;SDS011;18622;51.998;10.440;2022-08-19T10:23:53;9.90;;;6.25;;
32106;SDS011;18622;51.998;10.440;2022-08-19T10:26:24;10.90;;;6.47;;
32106;SDS011;18622;51.998;10.440;2022-08-19T10:28:53;8.13;;;6.60;;
32106;SDS011;18622;51.998;10.440;2022-08-19T10:31:30;9.80;;;6.80;;
32106;SDS011;18622;51.998;10.440;2022-08-19T10:33:53;9.17;;;7.17;;
32106;SDS011;18622;51.998;10.440;2022-08-19T10:36:24;9.53;;;7.00;;
32106;SDS011;18622;51.998;10.440;2022-08-19T10:38:54;9.20;;;7.12;;
32106;SDS011;18622;51.998;10.440;2022-08-19T10:41:28;9.98;;;8.40;;
32106;SDS011;18622;51.998;10.440;2022-08-19T10:43:59;8.70;;;7.80;;
32106;SDS011;18622;51.998;10.440;2022-08-19T10:46:28;11.30;;;7.12;;
32106;SDS011;18622;51.998;10.440;2022-08-19T10:49:00;12.98;;;9.13;;
32106;SDS011;18622;51.998;10.440;2022-08-19T10:51:29;12.03;;;8.07;;
32106;SDS011;18622;51.998;10.440;2022-08-19T10:54:16;9.67;;;7.73;;
32106;SDS011;18622;51.998;10.440;2022-08-19T10:56:44;9.50;;;8.10;;
32106;SDS011;18622;51.998;10.440;2022-08-19T10:59:22;7.30;;;6.43;;
32106;SDS011;18622;51.998;10.440;2022-08-19T12:33:26;4.35;;;3.22;;
32106;SDS011;18622;51.998;10.440;2022-08-19T12:35:54;4.92;;;2.95;;
32106;SDS011;18622;51.998;10.440;2022-08-19T12:38:25;3.65;;;2.95;;
32106;SDS011;18622;51.998;10.440;2022-08-19T12:40:53;4.63;;;3.10;;
32106;SDS011;18622;51.998;10.440;2022-08-19T12:43:20;4.77;;;3.03;;
32106;SDS011;18622;51.998;10.440;2022-08-19T12:45:48;4.35;;;3.30;;
32106;SDS011;18622;51.998;10.440;2022-08-19T12:48:16;6.83;;;3.30;;
32106;SDS011;18622;51.998;10.440;2022-08-19T12:50:44;4.35;;;2.83;;
32106;SDS011;18622;51.998;10.440;2022-08-19T12:53:12;3.67;;;2.90;;
32106;SDS011;18622;51.998;10.440;2022-08-19T12:55:41;4.22;;;2.80;;
32106;SDS011;18622;51.998;10.440;2022-08-19T12:58:09;12.98;;;2.87;;
32106;SDS011;18622;51.998;10.440;2022-08-19T13:00:38;3.47;;;3.17;;
32106;SDS011;18622;51.998;10.440;2022-08-19T13:03:06;3.83;;;3.15;;
32106;SDS011;18622;51.998;10.440;2022-08-19T13:05:34;3.40;;;2.60;;
32106;SDS011;18622;51.998;10.440;2022-08-19T13:08:01;7.22;;;2.67;;
32106;SDS011;18622;51.998;10.440;2022-08-19T13:10:31;2.80;;;2.50;;
32106;SDS011;18622;51.998;10.440;2022-08-19T13:13:03;4.80;;;2.60;;
32106;SDS011;18622;51.998;10.440;2022-08-19T13:15:36;5.10;;;2.42;;
32106;SDS011;18622;51.998;10.440;2022-08-19T13:18:09;2.70;;;2.50;;
32106;SDS011;18622;51.998;10.440;2022-08-19T13:20:39;5.60;;;2.92;;
32106;SDS011;18622;51.998;10.440;2022-08-19T13:23:08;4.70;;;2.73;;
32106;SDS011;18622;51.998;10.440;2022-08-19T13:25:36;4.67;;;2.40;;
32106;SDS011;18622;51.998;10.440;2022-08-19T13:28:04;3.37;;;2.40;;
32106;SDS011;18622;51.998;10.440;2022-08-19T13:30:32;4.22;;;2.42;;
32106;SDS011;18622;51.998;10.440;2022-08-19T13:33:17;3.80;;;2.30;;
32106;SDS011;18622;51.998;10.440;2022-08-19T13:38:18;6.08;;;2.90;;
32106;SDS011;18622;51.998;10.440;2022-08-19T13:40:47;6.20;;;2.60;;
32106;SDS011;18622;51.998;10.440;2022-08-19T13:43:17;3.33;;;2.33;;
32106;SDS011;18622;51.998;10.440;2022-08-19T13:45:47;3.65;;;3.00;;
32106;SDS011;18622;51.998;10.440;2022-08-19T13:48:15;4.17;;;2.40;;
32106;SDS011;18622;51.998;10.440;2022-08-19T13:50:44;3.72;;;2.70;;
32106;SDS011;18622;51.998;10.440;2022-08-19T13:53:14;3.80;;;2.30;;
32106;SDS011;18622;51.998;10.440;2022-08-19T13:55:42;4.37;;;2.85;;
32106;SDS011;18622;51.998;10.440;2022-08-19T13:58:11;4.42;;;3.37;;
32106;SDS011;18622;51.998;10.440;2022-08-19T14:00:40;5.95;;;2.77;;
32106;SDS011;18622;51.998;10.440;2022-08-19T14:03:10;4.28;;;3.05;;
32106;SDS011;18622;51.998;10.440;2022-08-19T14:05:38;2.98;;;2.65;;
32106;SDS011;18622;51.998;10.440;2022-08-19T14:08:05;5.33;;;2.58;;
32106;SDS011;18622;51.998;10.440;2022-08-19T14:10:33;5.75;;;2.95;;
32106;SDS011;18622;51.998;10.440;2022-08-19T14:13:02;2.60;;;2.40;;
32106;SDS011;18622;51.998;10.440;2022-08-19T14:15:30;3.37;;;2.40;;
32106;SDS011;18622;51.998;10.440;2022-08-19T14:17:58;4.07;;;2.57;;
32106;SDS011;18622;51.998;10.440;2022-08-19T14:20:26;2.77;;;2.57;;
32106;SDS011;18622;51.998;10.440;2022-08-19T14:22:54;4.20;;;2.70;;
32106;SDS011;18622;51.998;10.440;2022-08-19T14:25:24;5.50;;;2.97;;
32106;SDS011;18622;51.998;10.440;2022-08-19T14:27:52;3.80;;;2.77;;
32106;SDS011;18622;51.998;10.440;2022-08-19T14:30:22;3.05;;;2.85;;
32106;SDS011;18622;51.998;10.440;2022-08-19T14:32:52;3.12;;;2.83;;
32106;SDS011;18622;51.998;10.440;2022-08-19T14:35:21;10.50;;;3.17;;
32106;SDS011;18622;51.998;10.440;2022-08-19T14:37:49;3.05;;;2.75;;
32106;SDS011;18622;51.998;10.440;2022-08-19T14:40:22;3.30;;;3.00;;
32106;SDS011;18622;51.998;10.440;2022-08-19T14:43:01;3.95;;;3.30;;
32106;SDS011;18622;51.998;10.440;2022-08-19T14:45:28;3.37;;;3.08;;
32106;SDS011;18622;51.998;10.440;2022-08-19T14:47:57;4.58;;;2.75;;
32106;SDS011;18622;51.998;10.440;2022-08-19T14:50:26;3.60;;;3.20;;
32106;SDS011;18622;51.998;10.440;2022-08-19T14:52:57;4.08;;;3.72;;
32106;SDS011;18622;51.998;10.440;2022-08-19T14:55:28;3.67;;;3.37;;
32106;SDS011;18622;51.998;10.440;2022-08-19T14:57:56;4.27;;;3.83;;
32106;SDS011;18622;51.998;10.440;2022-08-19T15:00:23;4.40;;;4.00;;
32106;SDS011;18622;51.998;10.440;2022-08-19T15:02:51;5.80;;;3.73;;
32106;SDS011;18622;51.998;10.440;2022-08-19T15:05:20;4.97;;;3.47;;
32106;SDS011;18622;51.998;10.440;2022-08-19T15:07:48;3.77;;;3.40;;
32106;SDS011;18622;51.998;10.440;2022-08-19T15:10:15;5.00;;;3.67;;
32106;SDS011;18622;51.998;10.440;2022-08-19T15:12:43;4.20;;;3.73;;
32106;SDS011;18622;51.998;10.440;2022-08-19T15:15:12;3.62;;;3.33;;
32106;SDS011;18622;51.998;10.440;2022-08-19T15:17:40;4.22;;;3.50;;
32106;SDS011;18622;51.998;10.440;2022-08-19T15:20:09;8.98;;;3.45;;
32106;SDS011;18622;51.998;10.440;2022-08-19T15:22:38;4.37;;;3.58;;
32106;SDS011;18622;51.998;10.440;2022-08-19T15:25:08;5.95;;;3.50;;
32106;SDS011;18622;51.998;10.440;2022-08-19T15:27:37;4.15;;;3.30;;
32106;SDS011;18622;51.998;10.440;2022-08-19T15:30:09;3.67;;;3.12;;
32106;SDS011;18622;51.998;10.440;2022-08-19T15:32:38;3.40;;;3.10;;
32106;SDS011;18622;51.998;10.440;2022-08-19T15:35:06;4.17;;;2.67;;
32106;SDS011;18622;51.998;10.440;2022-08-19T15:37:34;4.40;;;2.80;;
32106;SDS011;18622;51.998;10.440;2022-08-19T15:40:02;4.37;;;2.97;;
32106;SDS011;18622;51.998;10.440;2022-08-19T15:42:39;2.87;;;2.50;;
32106;SDS011;18622;51.998;10.440;2022-08-19T15:45:04;6.17;;;2.60;;
32106;SDS011;18622;51.998;10.440;2022-08-19T15:47:32;4.83;;;2.67;;
32106;SDS011;18622;51.998;10.440;2022-08-19T15:50:03;3.27;;;2.97;;
32106;SDS011;18622;51.998;10.440;2022-08-19T15:53:00;2.87;;;2.40;;
32106;SDS011;18622;51.998;10.440;2022-08-19T15:55:13;3.80;;;2.00;;
32106;SDS011;18622;51.998;10.440;2022-08-19T15:57:41;2.43;;;2.23;;
32106;SDS011;18622;51.998;10.440;2022-08-19T16:00:27;3.83;;;2.20;;
32106;SDS011;18622;51.998;10.440;2022-08-19T16:03:13;9.53;;;2.20;;
32106;SDS011;18622;51.998;10.440;2022-08-19T16:05:59;3.13;;;2.20;;
32106;SDS011;18622;51.998;10.440;2022-08-19T16:08:45;4.33;;;1.80;;
32106;SDS011;18622;51.998;10.440;2022-08-19T16:11:18;2.07;;;1.87;;
32106;SDS011;18622;51.998;10.440;2022-08-19T16:13:47;2.30;;;2.10;;
32106;SDS011;18622;51.998;10.440;2022-08-19T16:16:24;5.83;;;1.77;;
32106;SDS011;18622;51.998;10.440;2022-08-19T16:18:47;8.65;;;2.22;;
32106;SDS011;18622;51.998;10.440;2022-08-19T16:21:18;2.42;;;1.70;;
32106;SDS011;18622;51.998;10.440;2022-08-19T16:23:48;2.43;;;2.13;;
32106;SDS011;18622;51.998;10.440;2022-08-19T16:26:16;3.93;;;2.20;;
32106;SDS011;18622;51.998;10.440;2022-08-19T16:28:45;2.73;;;1.90;;
32106;SDS011;18622;51.998;10.440;2022-08-19T16:31:14;2.57;;;2.30;;
32106;SDS011;18622;51.998;10.440;2022-08-19T16:33:41;3.47;;;2.00;;
32106;SDS011;18622;51.998;10.440;2022-08-19T16:36:09;5.67;;;1.90;;
32106;SDS011;18622;51.998;10.440;2022-08-19T16:38:37;3.90;;;1.77;;
32106;SDS011;18622;51.998;10.440;2022-08-19T16:41:05;1.70;;;1.60;;
32106;SDS011;18622;51.998;10.440;2022-08-19T16:43:33;7.43;;;1.93;;
32106;SDS011;18622;51.998;10.440;2022-08-19T16:46:01;3.03;;;1.80;;
32106;SDS011;18622;51.998;10.440;2022-08-19T16:48:29;2.67;;;2.00;;
32106;SDS011;18622;51.998;10.440;2022-08-19T16:50:58;5.25;;;2.15;;
32106;SDS011;18622;51.998;10.440;2022-08-19T16:53:27;4.60;;;1.80;;
32106;SDS011;18622;51.998;10.440;2022-08-19T16:56:01;2.80;;;1.90;;
32106;SDS011;18622;51.998;10.440;2022-08-19T16:58:26;2.40;;;2.20;;
32106;SDS011;18622;51.998;10.440;2022-08-19T17:00:56;3.70;;;2.00;;
32106;SDS011;18622;51.998;10.440;2022-08-19T17:03:24;3.03;;;1.70;;
32106;SDS011;18622;51.998;10.440;2022-08-19T17:05:52;4.73;;;1.90;;
32106;SDS011;18622;51.998;10.440;2022-08-19T17:08:23;1.93;;;1.80;;
32106;SDS011;18622;51.998;10.440;2022-08-19T17:10:53;4.10;;;2.23;;
32106;SDS011;18622;51.998;10.440;2022-08-19T17:13:23;3.60;;;1.87;;
32106;SDS011;18622;51.998;10.440;2022-08-19T17:15:52;1.77;;;1.65;;
32106;SDS011;18622;51.998;10.440;2022-08-19T17:18:20;2.98;;;1.92;;
32106;SDS011;18622;51.998;10.440;2022-08-19T17:20:49;1.70;;;1.60;;
32106;SDS011;18622;51.998;10.440;2022-08-19T17:23:18;1.70;;;1.57;;
32106;SDS011;18622;51.998;10.440;2022-08-19T17:25:48;4.92;;;1.82;;
32106;SDS011;18622;51.998;10.440;2022-08-19T17:28:17;2.20;;;1.80;;
32106;SDS011;18622;51.998;10.440;2022-08-19T17:30:47;1.65;;;1.52;;
32106;SDS011;18622;51.998;10.440;2022-08-19T17:33:15;7.83;;;1.43;;
32106;SDS011;18622;51.998;10.440;2022-08-19T17:35:43;4.40;;;1.80;;
32106;SDS011;18622;51.998;10.440;2022-08-19T17:38:13;5.55;;;1.65;;
32106;SDS011;18622;51.998;10.440;2022-08-19T17:40:42;3.65;;;1.90;;
32106;SDS011;18622;51.998;10.440;2022-08-19T17:43:10;1.87;;;1.55;;
32106;SDS011;18622;51.998;10.440;2022-08-19T17:45:40;3.25;;;1.67;;
32106;SDS011;18622;51.998;10.440;2022-08-19T17:48:08;2.05;;;1.30;;
32106;SDS011;18622;51.998;10.440;2022-08-19T17:50:37;4.97;;;1.72;;
32106;SDS011;18622;51.998;10.440;2022-08-19T17:53:05;2.27;;;1.27;;
32106;SDS011;18622;51.998;10.440;2022-08-19T17:55:33;2.73;;;1.60;;
32106;SDS011;18622;51.998;10.440;2022-08-19T17:58:02;1.63;;;1.50;;
32106;SDS011;18622;51.998;10.440;2022-08-19T18:00:31;4.80;;;1.47;;
32106;SDS011;18622;51.998;10.440;2022-08-19T18:03:00;5.70;;;1.47;;
32106;SDS011;18622;51.998;10.440;2022-08-19T18:05:30;3.58;;;1.50;;
32106;SDS011;18622;51.998;10.440;2022-08-19T18:08:00;5.53;;;1.57;;
32106;SDS011;18622;51.998;10.440;2022-08-19T18:10:29;4.12;;;1.42;;
32106;SDS011;18622;51.998;10.440;2022-08-19T18:15:24;2.17;;;1.50;;
32106;SDS011;18622;51.998;10.440;2022-08-19T18:17:52;1.70;;;1.47;;
32106;SDS011;18622;51.998;10.440;2022-08-19T18:20:21;4.17;;;1.85;;
32106;SDS011;18622;51.998;10.440;2022-08-19T18:22:49;6.25;;;1.77;;
32106;SDS011;18622;51.998;10.440;2022-08-19T18:25:19;7.50;;;1.70;;
32106;SDS011;18622;51.998;10.440;2022-08-19T18:27:51;3.90;;;1.60;;
32106;SDS011;18622;51.998;10.440;2022-08-19T18:30:22;4.15;;;2.50;;
32106;SDS011;18622;51.998;10.440;2022-08-19T18:32:50;4.70;;;1.82;;
32106;SDS011;18622;51.998;10.440;2022-08-19T18:35:22;5.65;;;1.92;;
32106;SDS011;18622;51.998;10.440;2022-08-19T18:37:53;3.20;;;1.73;;
32106;SDS011;18622;51.998;10.440;2022-08-19T18:40:22;4.12;;;1.82;;
32106;SDS011;18622;51.998;10.440;2022-08-19T18:43:08;3.80;;;1.90;;
32106;SDS011;18622;51.998;10.440;2022-08-19T18:45:44;3.80;;;2.03;;
32106;SDS011;18622;51.998;10.440;2022-08-19T18:48:29;2.73;;;2.00;;
32106;SDS011;18622;51.998;10.440;2022-08-19T18:51:15;7.60;;;2.00;;
32106;SDS011;18622;51.998;10.440;2022-08-19T18:53:44;2.17;;;1.82;;
32106;SDS011;18622;51.998;10.440;2022-08-19T18:56:15;4.62;;;2.20;;
32106;SDS011;18622;51.998;10.440;2022-08-19T18:58:44;3.30;;;2.02;;
32106;SDS011;18622;51.998;10.440;2022-08-19T19:01:16;2.57;;;1.53;;
32106;SDS011;18622;51.998;10.440;2022-08-19T19:03:49;1.73;;;1.60;;
32106;SDS011;18622;51.998;10.440;2022-08-19T19:06:22;2.60;;;1.80;;
32106;SDS011;18622;51.998;10.440;2022-08-19T19:08:52;2.87;;;1.73;;
32106;SDS011;18622;51.998;10.440;2022-08-19T19:11:22;3.57;;;2.00;;
32106;SDS011;18622;51.998;10.440;2022-08-19T19:13:50;2.50;;;2.20;;
32106;SDS011;18622;51.998;10.440;2022-08-19T19:16:19;5.25;;;2.27;;
32106;SDS011;18622;51.998;10.440;2022-08-19T19:18:47;3.57;;;2.20;;
32106;SDS011;18622;51.998;10.440;2022-08-19T19:21:18;3.40;;;2.13;;
32106;SDS011;18622;51.998;10.440;2022-08-19T19:23:50;8.53;;;1.97;;
32106;SDS011;18622;51.998;10.440;2022-08-19T19:26:18;2.92;;;2.30;;
32106;SDS011;18622;51.998;10.440;2022-08-19T19:28:47;5.40;;;2.47;;
32106;SDS011;18622;51.998;10.440;2022-08-19T19:31:18;2.83;;;2.25;;
32106;SDS011;18622;51.998;10.440;2022-08-19T19:33:52;6.77;;;2.77;;
32106;SDS011;18622;51.998;10.440;2022-08-19T19:36:21;6.75;;;2.15;;
32106;SDS011;18622;51.998;10.440;2022-08-19T19:38:49;3.52;;;2.22;;
32106;SDS011;18622;51.998;10.440;2022-08-19T19:41:18;2.65;;;2.45;;
32106;SDS011;18622;51.998;10.440;2022-08-19T19:43:51;3.70;;;3.00;;
32106;SDS011;18622;51.998;10.440;2022-08-19T19:48:47;3.37;;;2.37;;
32106;SDS011;18622;51.998;10.440;2022-08-19T19:51:15;5.23;;;2.50;;
32106;SDS011;18622;51.998;10.440;2022-08-19T19:53:44;4.75;;;3.30;;
32106;SDS011;18622;51.998;10.440;2022-08-19T19:56:12;6.57;;;3.70;;
32106;SDS011;18622;51.998;10.440;2022-08-19T19:58:40;4.90;;;3.13;;
32106;SDS011;18622;51.998;10.440;2022-08-19T20:01:08;4.37;;;3.20;;
32106;SDS011;18622;51.998;10.440;2022-08-19T20:03:38;4.78;;;3.55;;
32106;SDS011;18622;51.998;10.440;2022-08-19T20:06:07;6.90;;;2.90;;
32106;SDS011;18622;51.998;10.440;2022-08-19T20:08:36;6.25;;;3.50;;
32106;SDS011;18622;51.998;10.440;2022-08-19T20:11:26;4.77;;;3.40;;
32106;SDS011;18622;51.998;10.440;2022-08-19T20:13:58;2.70;;;2.50;;
32106;SDS011;18622;51.998;10.440;2022-08-19T20:16:27;3.40;;;3.10;;
32106;SDS011;18622;51.998;10.440;2022-08-19T20:18:56;6.00;;;3.62;;
32106;SDS011;18622;51.998;10.440;2022-08-19T20:21:26;4.90;;;3.63;;
32106;SDS011;18622;51.998;10.440;2022-08-19T20:23:58;6.93;;;3.33;;
32106;SDS011;18622;51.998;10.440;2022-08-19T20:26:27;6.30;;;3.27;;
32106;SDS011;18622;51.998;10.440;2022-08-19T20:28:55;3.52;;;3.22;;
32106;SDS011;18622;51.998;10.440;2022-08-19T20:31:25;3.85;;;3.30;;
32106;SDS011;18622;51.998;10.440;2022-08-19T20:33:53;6.43;;;3.40;;
32106;SDS011;18622;51.998;10.440;2022-08-19T20:36:21;4.17;;;3.47;;
32106;SDS011;18622;51.998;10.440;2022-08-19T20:38:49;4.45;;;3.62;;
32106;SDS011;18622;51.998;10.440;2022-08-19T20:41:17;5.67;;;3.97;;
32106;SDS011;18622;51.998;10.440;2022-08-19T20:43:46;3.75;;;3.45;;
32106;SDS011;18622;51.998;10.440;2022-08-19T20:46:14;4.20;;;3.77;;
32106;SDS011;18622;51.998;10.440;2022-08-19T20:48:42;4.20;;;3.60;;
32106;SDS011;18622;51.998;10.440;2022-08-19T20:51:10;4.63;;;3.80;;
32106;SDS011;18622;51.998;10.440;2022-08-19T20:53:38;3.90;;;3.50;;
32106;SDS011;18622;51.998;10.440;2022-08-19T20:56:07;4.20;;;3.83;;
32106;SDS011;18622;51.998;10.440;2022-08-19T20:58:35;6.17;;;3.40;;
32106;SDS011;18622;51.998;10.440;2022-08-19T21:01:03;4.87;;;3.50;;
32106;SDS011;18622;51.998;10.440;2022-08-19T21:03:34;9.35;;;4.50;;
32106;SDS011;18622;51.998;10.440;2022-08-19T21:06:09;9.73;;;4.00;;
32106;SDS011;18622;51.998;10.440;2022-08-19T21:08:38;4.77;;;3.97;;
32106;SDS011;18622;51.998;10.440;2022-08-19T21:11:07;8.33;;;3.98;;
32106;SDS011;18622;51.998;10.440;2022-08-19T21:13:35;6.15;;;3.98;;
32106;SDS011;18622;51.998;10.440;2022-08-19T21:16:03;4.33;;;3.93;;
32106;SDS011;18622;51.998;10.440;2022-08-19T21:18:31;4.17;;;3.80;;
32106;SDS011;18622;51.998;10.440;2022-08-19T21:21:00;4.50;;;3.83;;
32106;SDS011;18622;51.998;10.440;2022-08-19T21:23:29;4.37;;;3.90;;
32106;SDS011;18622;51.998;10.440;2022-08-19T21:25:58;7.53;;;4.42;;
32106;SDS011;18622;51.998;10.440;2022-08-19T21:28:26;7.28;;;4.60;;
32106;SDS011;18622;51.998;10.440;2022-08-19T21:30:55;4.57;;;4.13;;
32106;SDS011;18622;51.998;10.440;2022-08-19T21:33:25;5.05;;;4.50;;
32106;SDS011;18622;51.998;10.440;2022-08-19T21:35:56;5.57;;;4.37;;
32106;SDS011;18622;51.998;10.440;2022-08-19T21:38:24;8.65;;;4.22;;
32106;SDS011;18622;51.998;10.440;2022-08-19T21:40:53;7.30;;;4.33;;
32106;SDS011;18622;51.998;10.440;2022-08-19T21:43:21;5.78;;;4.70;;
